Datum - Zeit
Döttingen
TemperaturTaupunktFeuchteSolar Wind aus
Richtung
Windböenaus
Richtung
Luftdruck
(QFF)
RegenRegen
Stärke
22.01.2019 - 00.00Uhr-0.3 °C-1.6 °C91 %0.0 W/m²0.9 km/hNord-NW4.0 km/hNord-NW1019.6 hPa0.0 mm0.0 mm/h
22.01.2019 - 00.05Uhr-0.4 °C-1.7 °C91 %0.0 W/m²0.2 km/hNord-NW1.8 km/hNord-NW1019.6 hPa0.0 mm0.0 mm/h
22.01.2019 - 00.10Uhr-0.3 °C-1.6 °C91 %0.0 W/m²0.4 km/hNord-NW1.8 km/hNord-NW1019.6 hPa0.0 mm0.0 mm/h
22.01.2019 - 00.15Uhr-0.4 °C-1.7 °C91 %0.0 W/m²1.9 km/hNord-NW5.8 km/hNord-NW1019.6 hPa0.0 mm0.0 mm/h
22.01.2019 - 00.20Uhr-0.4 °C-1.7 °C91 %0.0 W/m²1.7 km/hNord-NW5.8 km/hNord-NW1019.6 hPa0.0 mm0.0 mm/h
22.01.2019 - 00.25Uhr-0.4 °C-1.7 °C91 %0.0 W/m²0.9 km/hNord-NW4.0 km/hNord-NW1019.5 hPa0.0 mm0.0 mm/h
22.01.2019 - 00.30Uhr-0.4 °C-1.7 °C91 %0.0 W/m²1.6 km/hNord-NW4.0 km/hNord-NW1019.5 hPa0.0 mm0.0 mm/h
22.01.2019 - 00.35Uhr-0.4 °C-1.7 °C91 %0.0 W/m²1.6 km/hNord-NW4.0 km/hNord-NW1019.4 hPa0.0 mm0.0 mm/h
22.01.2019 - 00.40Uhr-0.4 °C-1.7 °C91 %0.0 W/m²0.0 km/hNord-NW0.0 km/hNorden1019.3 hPa0.0 mm0.0 mm/h
22.01.2019 - 00.45Uhr-0.4 °C-1.7 °C91 %0.0 W/m²2.1 km/hNord-NW4.0 km/hNord-NW1019.3 hPa0.0 mm0.0 mm/h
22.01.2019 - 00.50Uhr-0.4 °C-1.7 °C91 %0.0 W/m²0.9 km/hNord-NW4.0 km/hNord-NW1019.2 hPa0.0 mm0.0 mm/h
22.01.2019 - 00.55Uhr-0.4 °C-1.7 °C91 %0.0 W/m²0.7 km/hNord-NW1.8 km/hNord-NW1019.1 hPa0.0 mm0.0 mm/h
22.01.2019 - 01.00Uhr-0.4 °C-1.7 °C91 %0.0 W/m²0.0 km/hNord-NW0.0 km/hNorden1019.0 hPa0.0 mm0.0 mm/h
22.01.2019 - 01.05Uhr-0.4 °C-1.7 °C91 %0.0 W/m²0.4 km/hNord-NW1.8 km/hNord-NW1018.9 hPa0.0 mm0.0 mm/h
22.01.2019 - 01.10Uhr-0.4 °C-1.7 °C91 %0.0 W/m²0.0 km/hNord-NW0.0 km/hNorden1018.8 hPa0.0 mm0.0 mm/h
22.01.2019 - 01.15Uhr-0.4 °C-1.7 °C91 %0.0 W/m²0.5 km/hNord-NW1.8 km/hNord-NW1018.7 hPa0.0 mm0.0 mm/h
22.01.2019 - 01.20Uhr-0.4 °C-1.7 °C91 %0.0 W/m²1.7 km/hNord-NW4.0 km/hNord-NW1018.7 hPa0.0 mm0.0 mm/h
22.01.2019 - 01.25Uhr-0.4 °C-1.7 °C91 %0.0 W/m²1.2 km/hNord-NW4.0 km/hNord-NW1018.7 hPa0.0 mm0.0 mm/h
22.01.2019 - 01.30Uhr-0.5 °C-1.8 °C91 %0.0 W/m²1.7 km/hNord-NW4.0 km/hNord-NW1018.6 hPa0.0 mm0.0 mm/h
22.01.2019 - 01.35Uhr-0.5 °C-1.8 °C91 %0.0 W/m²2.3 km/hNord-NW5.8 km/hNord-NW1018.5 hPa0.0 mm0.0 mm/h
22.01.2019 - 01.40Uhr-0.4 °C-1.7 °C91 %0.0 W/m²3.5 km/hNord-NW8.3 km/hNord-NW1018.5 hPa0.0 mm0.0 mm/h
22.01.2019 - 01.45Uhr-0.4 °C-1.7 °C91 %0.0 W/m²2.0 km/hNord-NW5.8 km/hNord-NW1018.5 hPa0.0 mm0.0 mm/h
22.01.2019 - 01.50Uhr-0.5 °C-1.8 °C91 %0.0 W/m²1.5 km/hNord-NW5.8 km/hNord-NW1018.4 hPa0.0 mm0.0 mm/h
22.01.2019 - 01.55Uhr-0.6 °C-1.9 °C91 %0.0 W/m²1.6 km/hNord-NW5.8 km/hNord-NW1018.3 hPa0.0 mm0.0 mm/h
22.01.2019 - 02.00Uhr-0.6 °C-1.9 °C91 %0.0 W/m²1.0 km/hNord-NW4.0 km/hNord-NW1018.3 hPa0.0 mm0.0 mm/h
22.01.2019 - 02.05Uhr-0.6 °C-1.9 °C91 %0.0 W/m²0.2 km/hNord-NW1.8 km/hNord-NW1018.2 hPa0.0 mm0.0 mm/h
22.01.2019 - 02.10Uhr-0.6 °C-1.9 °C91 %0.0 W/m²0.0 km/hNord-NW0.0 km/hNorden1018.2 hPa0.0 mm0.0 mm/h
22.01.2019 - 02.15Uhr-0.6 °C-1.9 °C91 %0.0 W/m²0.0 km/hNord-NW0.0 km/hNorden1018.2 hPa0.0 mm0.0 mm/h
22.01.2019 - 02.20Uhr-0.7 °C-2.0 °C91 %0.0 W/m²0.0 km/hNord-NW0.0 km/hNorden1018.1 hPa0.0 mm0.0 mm/h
22.01.2019 - 02.25Uhr-0.6 °C-1.9 °C91 %0.0 W/m²0.0 km/hNord-NW0.0 km/hNorden1018.0 hPa0.0 mm0.0 mm/h
22.01.2019 - 02.30Uhr-0.7 °C-2.0 °C91 %0.0 W/m²0.0 km/hNord-NW0.0 km/hNorden1017.9 hPa0.0 mm0.0 mm/h
22.01.2019 - 02.35Uhr-0.7 °C-2.0 °C91 %0.0 W/m²0.0 km/hNord-NW0.0 km/hNorden1017.8 hPa0.0 mm0.0 mm/h
22.01.2019 - 02.40Uhr-0.6 °C-1.9 °C91 %0.0 W/m²0.0 km/hNord-NW0.0 km/hNorden1017.7 hPa0.0 mm0.0 mm/h
22.01.2019 - 02.45Uhr-0.6 °C-1.9 °C91 %0.0 W/m²0.0 km/hNord-NW0.0 km/hNorden1017.6 hPa0.0 mm0.0 mm/h
22.01.2019 - 02.50Uhr-0.6 °C-1.9 °C91 %0.0 W/m²0.0 km/hNord-NW0.0 km/hNorden1017.5 hPa0.0 mm0.0 mm/h
22.01.2019 - 02.55Uhr-0.6 °C-1.9 °C91 %0.0 W/m²0.0 km/hNord-NW0.0 km/hNorden1017.4 hPa0.0 mm0.0 mm/h
22.01.2019 - 03.00Uhr-0.8 °C-2.0 °C91 %0.0 W/m²0.0 km/hNord-NW0.0 km/hNorden1017.3 hPa0.0 mm0.0 mm/h
22.01.2019 - 03.05Uhr-0.7 °C-2.0 °C91 %0.0 W/m²0.0 km/hNord-NW0.0 km/hNorden1017.3 hPa0.0 mm0.0 mm/h
22.01.2019 - 03.10Uhr-0.7 °C-2.0 °C91 %0.0 W/m²0.0 km/hNord-NW0.0 km/hNorden1017.2 hPa0.0 mm0.0 mm/h
22.01.2019 - 03.15Uhr-0.6 °C-1.9 °C91 %0.0 W/m²0.0 km/hNord-NW0.0 km/hNorden1017.1 hPa0.0 mm0.0 mm/h
22.01.2019 - 03.20Uhr-0.6 °C-1.9 °C91 %0.0 W/m²0.0 km/hNord-NW0.0 km/hNorden1017.1 hPa0.0 mm0.0 mm/h
22.01.2019 - 03.25Uhr-0.6 °C-1.9 °C91 %0.0 W/m²0.0 km/hNord-NW0.0 km/hNorden1017.0 hPa0.0 mm0.0 mm/h
22.01.2019 - 03.30Uhr-0.6 °C-1.9 °C91 %0.0 W/m²0.0 km/hNord-NW0.0 km/hNorden1016.9 hPa0.0 mm0.0 mm/h
22.01.2019 - 03.35Uhr-0.6 °C-1.9 °C91 %0.0 W/m²0.2 km/hNord-NW1.8 km/hNord-NW1016.9 hPa0.0 mm0.0 mm/h
22.01.2019 - 03.40Uhr-0.5 °C-1.8 °C91 %0.0 W/m²4.3 km/hNord-NW8.3 km/hNord-NW1016.9 hPa0.0 mm0.0 mm/h
22.01.2019 - 03.45Uhr-0.5 °C-1.8 °C91 %0.0 W/m²3.5 km/hNord-NW5.8 km/hNord-NW1016.8 hPa0.0 mm0.0 mm/h
22.01.2019 - 03.50Uhr-0.4 °C-1.7 °C91 %0.0 W/m²3.6 km/hNord-NW8.3 km/hNord-NW1016.7 hPa0.0 mm0.0 mm/h
22.01.2019 - 03.55Uhr-0.4 °C-1.7 °C91 %0.0 W/m²4.7 km/hNord-NW8.3 km/hNord-NW1016.6 hPa0.0 mm0.0 mm/h
22.01.2019 - 04.00Uhr-0.5 °C-1.8 °C91 %0.0 W/m²5.3 km/hNord-NW10.1 km/hNord-NW1016.5 hPa0.0 mm0.0 mm/h
22.01.2019 - 04.05Uhr-0.6 °C-1.9 °C91 %0.0 W/m²2.8 km/hNord-NW8.3 km/hNord-NW1016.4 hPa0.0 mm0.0 mm/h
22.01.2019 - 04.10Uhr-0.6 °C-1.9 °C91 %0.0 W/m²3.5 km/hNord-NW8.3 km/hNord-NW1016.4 hPa0.0 mm0.0 mm/h
22.01.2019 - 04.15Uhr-0.6 °C-1.9 °C91 %0.0 W/m²1.9 km/hNord-NW5.8 km/hNord-NW1016.3 hPa0.0 mm0.0 mm/h
22.01.2019 - 04.20Uhr-0.6 °C-1.9 °C91 %0.0 W/m²1.5 km/hNord-NW5.8 km/hNord-NW1016.3 hPa0.0 mm0.0 mm/h
22.01.2019 - 04.25Uhr-0.6 °C-1.9 °C91 %0.0 W/m²1.5 km/hNord-NW4.0 km/hNord-NW1016.2 hPa0.0 mm0.0 mm/h
22.01.2019 - 04.30Uhr-0.6 °C-1.9 °C91 %0.0 W/m²0.7 km/hNord-NW1.8 km/hNord-NW1016.1 hPa0.0 mm0.0 mm/h
22.01.2019 - 04.35Uhr-0.6 °C-1.9 °C91 %0.0 W/m²0.3 km/hNord-NW1.8 km/hNord-NW1016.1 hPa0.0 mm0.0 mm/h
22.01.2019 - 04.40Uhr-0.6 °C-1.9 °C91 %0.0 W/m²1.1 km/hNord-NW4.0 km/hNord-NW1016.1 hPa0.0 mm0.0 mm/h
22.01.2019 - 04.45Uhr-0.6 °C-1.9 °C91 %0.0 W/m²0.7 km/hNord-NW1.8 km/hNord-NW1016.0 hPa0.0 mm0.0 mm/h
22.01.2019 - 04.50Uhr-0.5 °C-1.8 °C91 %0.0 W/m²0.6 km/hNord-NW1.8 km/hNord-NW1015.9 hPa0.0 mm0.0 mm/h
22.01.2019 - 04.55Uhr-0.5 °C-1.8 °C91 %0.0 W/m²0.0 km/hNord-NW0.0 km/hNorden1015.9 hPa0.0 mm0.0 mm/h
22.01.2019 - 05.00Uhr-0.6 °C-1.9 °C91 %0.0 W/m²0.0 km/hNord-NW0.0 km/hNorden1015.8 hPa0.0 mm0.0 mm/h
22.01.2019 - 05.05Uhr-0.6 °C-1.9 °C91 %0.0 W/m²0.9 km/hNord-NW4.0 km/hNord-NW1015.7 hPa0.0 mm0.0 mm/h
22.01.2019 - 05.10Uhr-0.6 °C-1.9 °C91 %0.0 W/m²0.6 km/hNord-NW1.8 km/hNord-NW1015.7 hPa0.0 mm0.0 mm/h
22.01.2019 - 05.15Uhr-0.5 °C-1.8 °C91 %0.0 W/m²0.3 km/hNord-NW1.8 km/hNord-NW1015.6 hPa0.0 mm0.0 mm/h
22.01.2019 - 05.20Uhr-0.6 °C-1.9 °C91 %0.0 W/m²0.0 km/hNord-NW0.0 km/hNorden1015.6 hPa0.0 mm0.0 mm/h
22.01.2019 - 05.25Uhr-0.6 °C-1.9 °C91 %0.0 W/m²0.0 km/hNord-NW0.0 km/hNorden1015.5 hPa0.0 mm0.0 mm/h
22.01.2019 - 05.30Uhr-0.6 °C-1.9 °C91 %0.0 W/m²0.0 km/hNord-NW0.0 km/hNorden1015.5 hPa0.0 mm0.0 mm/h
22.01.2019 - 05.35Uhr-0.7 °C-1.9 °C91 %0.0 W/m²0.0 km/hNord-NW0.0 km/hNorden1015.4 hPa0.0 mm0.0 mm/h
22.01.2019 - 05.40Uhr-0.5 °C-1.8 °C91 %0.0 W/m²0.0 km/hNord-NW0.0 km/hNorden1015.3 hPa0.0 mm0.0 mm/h
22.01.2019 - 05.45Uhr-0.4 °C-1.7 °C91 %0.0 W/m²0.0 km/hNord-NW0.0 km/hNorden1015.2 hPa0.0 mm0.0 mm/h
22.01.2019 - 05.50Uhr-0.4 °C-1.7 °C91 %0.0 W/m²0.0 km/hNord-NW0.0 km/hNorden1015.2 hPa0.0 mm0.0 mm/h
22.01.2019 - 05.55Uhr-0.5 °C-1.8 °C91 %0.0 W/m²0.0 km/hNord-NW0.0 km/hNorden1015.1 hPa0.0 mm0.0 mm/h
22.01.2019 - 06.00Uhr-0.5 °C-1.8 °C91 %0.0 W/m²0.3 km/hNord-NW1.8 km/hNord-NW1015.0 hPa0.0 mm0.0 mm/h
22.01.2019 - 06.05Uhr-0.6 °C-1.9 °C91 %0.0 W/m²0.2 km/hNord-NW1.8 km/hNord-NW1015.0 hPa0.0 mm0.0 mm/h
22.01.2019 - 06.10Uhr-0.7 °C-1.9 °C91 %0.0 W/m²0.0 km/hNord-NW0.0 km/hNorden1015.0 hPa0.0 mm0.0 mm/h
22.01.2019 - 06.15Uhr-0.6 °C-1.9 °C91 %0.0 W/m²0.0 km/hNord-NW0.0 km/hNorden1015.0 hPa0.0 mm0.0 mm/h
22.01.2019 - 06.20Uhr-0.6 °C-1.9 °C91 %0.0 W/m²0.0 km/hNord-NW0.0 km/hNorden1014.9 hPa0.0 mm0.0 mm/h
22.01.2019 - 06.25Uhr-0.6 °C-1.9 °C91 %0.0 W/m²0.0 km/hNord-NW0.0 km/hNorden1014.9 hPa0.0 mm0.0 mm/h
22.01.2019 - 06.30Uhr-0.6 °C-1.9 °C91 %0.0 W/m²0.0 km/hNord-NW0.0 km/hNorden1014.9 hPa0.0 mm0.0 mm/h
22.01.2019 - 06.35Uhr-0.5 °C-1.8 °C91 %0.0 W/m²0.0 km/hNord-NW0.0 km/hNorden1014.9 hPa0.0 mm0.0 mm/h
22.01.2019 - 06.40Uhr-0.5 °C-1.8 °C91 %0.0 W/m²0.0 km/hNord-NW0.0 km/hNorden1014.8 hPa0.0 mm0.0 mm/h
22.01.2019 - 06.45Uhr-0.6 °C-1.9 °C91 %0.0 W/m²0.0 km/hNord-NW0.0 km/hNorden1014.8 hPa0.0 mm0.0 mm/h
22.01.2019 - 06.50Uhr-0.5 °C-1.8 °C91 %0.0 W/m²0.4 km/hNord-NW1.8 km/hNord-NW1014.8 hPa0.0 mm0.0 mm/h
22.01.2019 - 06.55Uhr-0.4 °C-1.7 °C91 %0.0 W/m²2.5 km/hNord-NW4.0 km/hNord-NW1014.7 hPa0.0 mm0.0 mm/h
22.01.2019 - 07.00Uhr-0.4 °C-1.7 °C91 %0.0 W/m²0.3 km/hNord-NW1.8 km/hNord-NW1014.7 hPa0.0 mm0.0 mm/h
22.01.2019 - 07.05Uhr-0.4 °C-1.7 °C91 %0.0 W/m²0.6 km/hNord-NW1.8 km/hNord-NW1014.7 hPa0.0 mm0.0 mm/h
22.01.2019 - 07.10Uhr-0.5 °C-1.8 °C91 %0.0 W/m²1.4 km/hNord-NW4.0 km/hNord-NW1014.6 hPa0.0 mm0.0 mm/h
22.01.2019 - 07.15Uhr-0.6 °C-1.9 °C90 %0.0 W/m²0.3 km/hNord-NW1.8 km/hNord-NW1014.6 hPa0.0 mm0.0 mm/h
22.01.2019 - 07.20Uhr-0.4 °C-1.9 °C90 %0.0 W/m²0.3 km/hNord-NW1.8 km/hNord-NW1014.6 hPa0.0 mm0.0 mm/h
22.01.2019 - 07.25Uhr-0.3 °C-1.9 °C89 %0.0 W/m²0.0 km/hNord-NW0.0 km/hNorden1014.6 hPa0.0 mm0.0 mm/h
22.01.2019 - 07.30Uhr-0.4 °C-1.8 °C90 %0.0 W/m²2.5 km/hNord-NW5.8 km/hNord-NW1014.5 hPa0.0 mm0.0 mm/h
22.01.2019 - 07.35Uhr-0.4 °C-2.0 °C89 %0.0 W/m²3.8 km/hNord-NW8.3 km/hNord-NW1014.5 hPa0.0 mm0.0 mm/h
22.01.2019 - 07.40Uhr-0.4 °C-2.0 °C89 %0.0 W/m²1.5 km/hNorden5.8 km/hNord-NW1014.5 hPa0.0 mm0.0 mm/h
22.01.2019 - 07.45Uhr-0.4 °C-2.1 °C88 %0.0 W/m²2.2 km/hNorden5.8 km/hNorden1014.5 hPa0.0 mm0.0 mm/h
22.01.2019 - 07.50Uhr-0.5 °C-2.2 °C88 %0.0 W/m²0.7 km/hNorden1.8 km/hNorden1014.5 hPa0.0 mm0.0 mm/h
22.01.2019 - 07.55Uhr-0.5 °C-2.1 °C88 %0.0 W/m²1.8 km/hNorden5.8 km/hNorden1014.5 hPa0.0 mm0.0 mm/h
22.01.2019 - 08.00Uhr-0.4 °C-2.1 °C88 %0.0 W/m²2.5 km/hSüd-SO8.3 km/hSüd-SO1014.4 hPa0.0 mm0.0 mm/h
22.01.2019 - 08.05Uhr-0.4 °C-2.1 °C88 %0.0 W/m²0.1 km/hSüd-SO1.8 km/hSüd-SO1014.4 hPa0.0 mm0.0 mm/h
22.01.2019 - 08.10Uhr-0.4 °C-2.0 °C89 %0.0 W/m²0.0 km/hSüd-SO1.8 km/hSüd-SO1014.4 hPa0.0 mm0.0 mm/h
22.01.2019 - 08.15Uhr-0.4 °C-2.1 °C88 %0.0 W/m²0.1 km/hSüd-SO1.8 km/hSüd-SO1014.5 hPa0.0 mm0.0 mm/h
22.01.2019 - 08.20Uhr-0.4 °C-2.1 °C88 %0.0 W/m²0.3 km/hSüd-SO4.0 km/hSüd-SO1014.4 hPa0.0 mm0.0 mm/h
22.01.2019 - 08.25Uhr-0.4 °C-2.1 °C88 %0.0 W/m²0.9 km/hSüd-SO8.3 km/hSüd-SO1014.3 hPa0.0 mm0.0 mm/h
22.01.2019 - 08.30Uhr-0.5 °C-2.2 °C88 %0.0 W/m²2.8 km/hSüd-SO8.3 km/hSüd-SO1014.3 hPa0.0 mm0.0 mm/h
22.01.2019 - 08.35Uhr-0.4 °C-2.1 °C88 %5.0 W/m²0.0 km/hSüd-SO0.0 km/hNorden1014.3 hPa0.0 mm0.0 mm/h
22.01.2019 - 08.40Uhr-0.4 °C-2.1 °C88 %5.0 W/m²3.3 km/hSüd-SO8.3 km/hSüd-SO1014.2 hPa0.0 mm0.0 mm/h
22.01.2019 - 08.45Uhr-0.4 °C-2.1 °C88 %7.0 W/m²0.8 km/hSüd-SO1.8 km/hSüd-SO1014.1 hPa0.0 mm0.0 mm/h
22.01.2019 - 08.50Uhr-0.4 °C-2.3 °C87 %9.0 W/m²1.0 km/hSüd-SO4.0 km/hSüd-SO1014.1 hPa0.0 mm0.0 mm/h
22.01.2019 - 08.55Uhr-0.4 °C-2.1 °C88 %11.0 W/m²0.0 km/hSüd-SO0.0 km/hNorden1014.1 hPa0.0 mm0.0 mm/h
22.01.2019 - 09.00Uhr-0.4 °C-2.3 °C87 %11.0 W/m²0.0 km/hSüd-SO0.0 km/hNorden1014.0 hPa0.0 mm0.0 mm/h
22.01.2019 - 09.05Uhr-0.4 °C-2.2 °C88 %11.0 W/m²0.5 km/hSüd-SO1.8 km/hSüd-SO1014.0 hPa0.0 mm0.0 mm/h
22.01.2019 - 09.10Uhr-0.4 °C-2.1 °C88 %12.0 W/m²0.0 km/hSüd-SO0.0 km/hNorden1014.0 hPa0.0 mm0.0 mm/h
22.01.2019 - 09.15Uhr-0.4 °C-2.2 °C88 %12.0 W/m²0.6 km/hSüd-SO1.8 km/hSüd-SO1014.0 hPa0.0 mm0.0 mm/h
22.01.2019 - 09.20Uhr-0.5 °C-2.1 °C88 %12.0 W/m²1.1 km/hSüd-SO4.0 km/hSüd-SO1014.0 hPa0.0 mm0.0 mm/h
22.01.2019 - 09.25Uhr-0.4 °C-2.1 °C88 %14.0 W/m²2.2 km/hSüd-SO8.3 km/hSüd-SO1014.0 hPa0.0 mm0.0 mm/h
22.01.2019 - 09.30Uhr-0.4 °C-2.2 °C87 %16.0 W/m²1.9 km/hSüden4.0 km/hSüden1014.0 hPa0.0 mm0.0 mm/h
22.01.2019 - 09.35Uhr-0.4 °C-2.3 °C87 %18.0 W/m²0.3 km/hSüden1.8 km/hSüden1014.0 hPa0.0 mm0.0 mm/h
22.01.2019 - 09.40Uhr-0.4 °C-2.3 °C87 %18.0 W/m²2.0 km/hSüden5.8 km/hSüden1013.9 hPa0.0 mm0.0 mm/h
22.01.2019 - 09.45Uhr-0.3 °C-2.2 °C87 %19.0 W/m²0.4 km/hSüden1.8 km/hSüden1013.9 hPa0.0 mm0.0 mm/h
22.01.2019 - 09.50Uhr-0.3 °C-2.1 °C88 %19.0 W/m²1.4 km/hSüden4.0 km/hSüden1013.8 hPa0.0 mm0.0 mm/h
22.01.2019 - 09.55Uhr-0.4 °C-2.3 °C87 %21.0 W/m²0.4 km/hSüden1.8 km/hSüden1013.8 hPa0.0 mm0.0 mm/h
22.01.2019 - 10.00Uhr-0.3 °C-2.1 °C87 %25.0 W/m²0.5 km/hSüden1.8 km/hSüden1013.8 hPa0.0 mm0.0 mm/h
22.01.2019 - 10.05Uhr-0.4 °C-2.2 °C87 %25.0 W/m²0.0 km/hSüden0.0 km/hNorden1013.8 hPa0.0 mm0.0 mm/h
22.01.2019 - 10.10Uhr-0.3 °C-2.1 °C88 %25.0 W/m²2.6 km/hSüden8.3 km/hSüden1013.8 hPa0.0 mm0.0 mm/h
22.01.2019 - 10.15Uhr-0.3 °C-2.4 °C86 %25.0 W/m²1.2 km/hSüden4.0 km/hSüden1013.8 hPa0.0 mm0.0 mm/h
22.01.2019 - 10.20Uhr-0.3 °C-2.4 °C86 %28.0 W/m²3.3 km/hSüden8.3 km/hSüden1013.7 hPa0.0 mm0.0 mm/h
22.01.2019 - 10.25Uhr-0.3 °C-2.3 °C86 %28.0 W/m²1.1 km/hSüden4.0 km/hSüden1013.7 hPa0.0 mm0.0 mm/h
22.01.2019 - 10.30Uhr-0.2 °C-2.3 °C86 %28.0 W/m²0.1 km/hSüden1.8 km/hSüden1013.6 hPa0.0 mm0.0 mm/h
22.01.2019 - 10.35Uhr-0.3 °C-2.4 °C86 %28.0 W/m²0.0 km/hSüden0.0 km/hNorden1013.6 hPa0.0 mm0.0 mm/h
22.01.2019 - 10.40Uhr-0.3 °C-2.2 °C87 %32.0 W/m²0.0 km/hSüden0.0 km/hNorden1013.5 hPa0.0 mm0.0 mm/h
22.01.2019 - 10.45Uhr-0.2 °C-2.3 °C86 %32.0 W/m²0.0 km/hSüden0.0 km/hNorden1013.5 hPa0.0 mm0.0 mm/h
22.01.2019 - 10.50Uhr-0.3 °C-2.3 °C86 %33.0 W/m²0.9 km/hSüden4.0 km/hSüden1013.4 hPa0.0 mm0.0 mm/h
22.01.2019 - 10.55Uhr-0.3 °C-2.1 °C87 %37.0 W/m²2.7 km/hSüden8.3 km/hSüden1013.3 hPa0.0 mm0.0 mm/h
22.01.2019 - 11.00Uhr-0.3 °C-2.0 °C88 %40.0 W/m²3.3 km/hSüden8.3 km/hSüden1013.2 hPa0.0 mm0.0 mm/h
22.01.2019 - 11.05Uhr-0.4 °C-2.1 °C88 %42.0 W/m²1.7 km/hSüden4.0 km/hSüden1013.2 hPa0.0 mm0.0 mm/h
22.01.2019 - 11.10Uhr-0.3 °C-2.0 °C88 %42.0 W/m²0.8 km/hSüden1.8 km/hSüden1013.1 hPa0.0 mm0.0 mm/h
22.01.2019 - 11.15Uhr-0.3 °C-2.0 °C89 %42.0 W/m²0.3 km/hSüden1.8 km/hSüden1013.0 hPa0.0 mm0.0 mm/h
22.01.2019 - 11.20Uhr-0.4 °C-2.0 °C89 %42.0 W/m²2.5 km/hSüden8.3 km/hSüden1013.0 hPa0.0 mm0.0 mm/h
22.01.2019 - 11.25Uhr-0.4 °C-2.0 °C89 %46.0 W/m²2.4 km/hSüden4.0 km/hSüden1012.9 hPa0.0 mm0.0 mm/h
22.01.2019 - 11.30Uhr-0.3 °C-1.9 °C89 %46.0 W/m²0.9 km/hSüden4.0 km/hSüden1012.8 hPa0.0 mm0.0 mm/h
22.01.2019 - 11.35Uhr-0.4 °C-2.0 °C89 %44.0 W/m²1.3 km/hSüden4.0 km/hSüden1012.7 hPa0.0 mm0.0 mm/h
22.01.2019 - 11.40Uhr-0.3 °C-1.9 °C89 %46.0 W/m²2.7 km/hSüden8.3 km/hOst-SO1012.6 hPa0.0 mm0.0 mm/h
22.01.2019 - 11.45Uhr-0.2 °C-1.9 °C88 %46.0 W/m²5.3 km/hOst-SO8.3 km/hOst-SO1012.5 hPa0.0 mm0.0 mm/h
22.01.2019 - 11.50Uhr-0.3 °C-2.0 °C88 %44.0 W/m²4.2 km/hOst-SO8.3 km/hOst-SO1012.5 hPa0.0 mm0.0 mm/h
22.01.2019 - 11.55Uhr-0.2 °C-2.1 °C87 %40.0 W/m²1.3 km/hOst-SO4.0 km/hOst-SO1012.4 hPa0.0 mm0.0 mm/h
22.01.2019 - 12.00Uhr-0.2 °C-2.1 °C87 %42.0 W/m²1.4 km/hOst-SO4.0 km/hOst-SO1012.4 hPa0.0 mm0.0 mm/h
22.01.2019 - 12.05Uhr-0.1 °C-2.2 °C86 %46.0 W/m²1.8 km/hOst-SO8.3 km/hOst-SO1012.3 hPa0.0 mm0.0 mm/h
22.01.2019 - 12.10Uhr-0.0 °C-2.1 °C86 %46.0 W/m²3.0 km/hOst-SO8.3 km/hOst-SO1012.2 hPa0.0 mm0.0 mm/h
22.01.2019 - 12.15Uhr0.1 °C-2.0 °C86 %47.0 W/m²2.1 km/hOst-SO8.3 km/hOst-SO1012.0 hPa0.0 mm0.0 mm/h
22.01.2019 - 12.20Uhr0.1 °C-2.0 °C86 %51.0 W/m²3.9 km/hSüdosten8.3 km/hSüdosten1011.9 hPa0.0 mm0.0 mm/h
22.01.2019 - 12.25Uhr0.1 °C-2.0 °C86 %54.0 W/m²2.2 km/hSüdosten8.3 km/hSüdosten1011.8 hPa0.0 mm0.0 mm/h
22.01.2019 - 12.30Uhr0.2 °C-1.9 °C86 %54.0 W/m²1.3 km/hSüdosten4.0 km/hSüdosten1011.7 hPa0.0 mm0.0 mm/h
22.01.2019 - 12.35Uhr0.2 °C-2.0 °C85 %53.0 W/m²5.0 km/hWest-SW8.3 km/hSüdosten1011.6 hPa0.0 mm0.0 mm/h
22.01.2019 - 12.40Uhr0.1 °C-2.1 °C85 %58.0 W/m²2.2 km/hWest-SW8.3 km/hWest-SW1011.5 hPa0.0 mm0.0 mm/h
22.01.2019 - 12.45Uhr0.2 °C-2.0 °C85 %65.0 W/m²3.0 km/hWest-SW8.3 km/hWest-SW1011.3 hPa0.0 mm0.0 mm/h
22.01.2019 - 12.50Uhr0.2 °C-2.0 °C85 %70.0 W/m²4.7 km/hWest-SW8.3 km/hSüd-SW1011.2 hPa0.0 mm0.0 mm/h
22.01.2019 - 12.55Uhr0.1 °C-2.1 °C85 %72.0 W/m²3.1 km/hSüd-SW5.8 km/hSüd-SW1011.1 hPa0.0 mm0.0 mm/h
22.01.2019 - 13.00Uhr0.2 °C-2.1 °C85 %70.0 W/m²1.0 km/hSüd-SW4.0 km/hSüd-SW1010.9 hPa0.0 mm0.0 mm/h
22.01.2019 - 13.05Uhr0.1 °C-2.2 °C85 %67.0 W/m²0.7 km/hSüd-SW1.8 km/hSüd-SW1010.8 hPa0.0 mm0.0 mm/h
22.01.2019 - 13.10Uhr-0.1 °C-2.5 °C84 %67.0 W/m²0.3 km/hSüd-SW1.8 km/hSüd-SW1010.8 hPa0.0 mm0.0 mm/h
22.01.2019 - 13.15Uhr-0.1 °C-2.4 °C84 %67.0 W/m²1.6 km/hSüd-SW4.0 km/hSüd-SW1010.6 hPa0.0 mm0.0 mm/h
22.01.2019 - 13.20Uhr-0.0 °C-2.3 °C85 %63.0 W/m²1.6 km/hSüd-SW5.8 km/hSüd-SW1010.5 hPa0.0 mm0.0 mm/h
22.01.2019 - 13.25Uhr0.2 °C-2.0 °C85 %60.0 W/m²0.6 km/hSüden4.0 km/hSüden1010.4 hPa0.0 mm0.0 mm/h
22.01.2019 - 13.30Uhr0.2 °C-2.0 °C85 %62.0 W/m²0.4 km/hSüden4.0 km/hSüden1010.3 hPa0.0 mm0.0 mm/h
22.01.2019 - 13.35Uhr0.1 °C-2.1 °C85 %63.0 W/m²1.6 km/hSüden8.3 km/hSüden1010.2 hPa0.0 mm0.0 mm/h
22.01.2019 - 13.40Uhr0.1 °C-2.3 °C84 %67.0 W/m²1.5 km/hSüden8.3 km/hSüden1010.1 hPa0.0 mm0.0 mm/h
22.01.2019 - 13.45Uhr0.0 °C-2.4 °C84 %67.0 W/m²2.3 km/hSüden8.3 km/hSüden1009.9 hPa0.0 mm0.0 mm/h
22.01.2019 - 13.50Uhr0.0 °C-2.4 °C84 %69.0 W/m²1.7 km/hSüden5.8 km/hSüden1009.9 hPa0.0 mm0.0 mm/h
22.01.2019 - 13.55Uhr0.1 °C-2.3 °C84 %69.0 W/m²1.6 km/hSüd-SW5.8 km/hSüd-SW1009.7 hPa0.0 mm0.0 mm/h
22.01.2019 - 14.00Uhr0.1 °C-2.3 °C84 %67.0 W/m²1.3 km/hSüd-SW5.8 km/hSüd-SW1009.6 hPa0.0 mm0.0 mm/h
22.01.2019 - 14.05Uhr0.1 °C-2.3 °C84 %65.0 W/m²3.1 km/hSüden8.3 km/hSüden1009.5 hPa0.0 mm0.0 mm/h
22.01.2019 - 14.10Uhr-0.0 °C-2.5 °C83 %63.0 W/m²4.6 km/hSüd-SO14.0 km/hSüden1009.4 hPa0.0 mm0.0 mm/h
22.01.2019 - 14.15Uhr0.1 °C-2.4 °C84 %69.0 W/m²1.6 km/hSüd-SO8.3 km/hSüd-SO1009.3 hPa0.0 mm0.0 mm/h
22.01.2019 - 14.20Uhr0.1 °C-2.3 °C84 %67.0 W/m²2.8 km/hSüd-SO8.3 km/hSüd-SO1009.2 hPa0.0 mm0.0 mm/h
22.01.2019 - 14.25Uhr-0.0 °C-2.5 °C83 %67.0 W/m²4.2 km/hSüd-SO12.2 km/hSüd-SO1009.1 hPa0.0 mm0.0 mm/h
22.01.2019 - 14.30Uhr-0.2 °C-2.7 °C83 %63.0 W/m²4.4 km/hSüd-SO10.1 km/hSüd-SO1009.1 hPa0.0 mm0.0 mm/h
22.01.2019 - 14.35Uhr-0.3 °C-2.7 °C83 %62.0 W/m²1.4 km/hSüd-SO4.0 km/hSüd-SO1009.0 hPa0.0 mm0.0 mm/h
22.01.2019 - 14.40Uhr-0.2 °C-2.6 °C84 %62.0 W/m²2.2 km/hSüd-SO8.3 km/hSüd-SO1008.9 hPa0.0 mm0.0 mm/h
22.01.2019 - 14.45Uhr-0.1 °C-2.5 °C84 %63.0 W/m²3.9 km/hSüd-SO8.3 km/hSüd-SO1008.7 hPa0.0 mm0.0 mm/h
22.01.2019 - 14.50Uhr-0.2 °C-2.6 °C84 %63.0 W/m²7.2 km/hSüd-SO12.2 km/hOst-SO1008.7 hPa0.0 mm0.0 mm/h
22.01.2019 - 14.55Uhr-0.2 °C-2.6 °C84 %60.0 W/m²7.0 km/hOst-SO12.2 km/hOst-SO1008.6 hPa0.0 mm0.0 mm/h
22.01.2019 - 15.00Uhr-0.2 °C-2.6 °C84 %54.0 W/m²3.5 km/hOst-SO8.3 km/hOst-SO1008.5 hPa0.0 mm0.0 mm/h
22.01.2019 - 15.05Uhr-0.2 °C-2.7 °C84 %51.0 W/m²3.9 km/hOst-SO8.3 km/hOst-SO1008.4 hPa0.0 mm0.0 mm/h
22.01.2019 - 15.10Uhr-0.2 °C-2.6 °C84 %51.0 W/m²1.0 km/hOst-SO8.3 km/hOst-SO1008.3 hPa0.0 mm0.0 mm/h
22.01.2019 - 15.15Uhr-0.2 °C-2.6 °C84 %49.0 W/m²4.4 km/hSüdosten10.1 km/hOst-SO1008.3 hPa0.0 mm0.0 mm/h
22.01.2019 - 15.20Uhr-0.2 °C-2.6 °C84 %47.0 W/m²2.2 km/hSüdosten8.3 km/hSüdosten1008.2 hPa0.0 mm0.0 mm/h
22.01.2019 - 15.25Uhr-0.2 °C-2.6 °C84 %51.0 W/m²5.9 km/hSüdosten12.2 km/hSüdosten1008.1 hPa0.0 mm0.0 mm/h
22.01.2019 - 15.30Uhr-0.2 °C-2.6 °C83 %51.0 W/m²5.5 km/hSüdosten8.3 km/hSüdosten1008.1 hPa0.0 mm0.0 mm/h
22.01.2019 - 15.35Uhr-0.1 °C-2.6 °C83 %51.0 W/m²5.0 km/hSüdosten12.2 km/hSüdosten1008.0 hPa0.0 mm0.0 mm/h
22.01.2019 - 15.40Uhr-0.2 °C-2.8 °C83 %49.0 W/m²2.5 km/hSüdosten10.1 km/hSüdosten1007.9 hPa0.0 mm0.0 mm/h
22.01.2019 - 15.45Uhr-0.2 °C-2.8 °C83 %47.0 W/m²1.2 km/hSüdosten4.0 km/hSüdosten1007.8 hPa0.0 mm0.0 mm/h
22.01.2019 - 15.50Uhr-0.1 °C-2.6 °C83 %46.0 W/m²0.5 km/hSüdosten1.8 km/hSüdosten1007.8 hPa0.0 mm0.0 mm/h
22.01.2019 - 15.55Uhr-0.2 °C-2.7 °C83 %40.0 W/m²3.1 km/hSüdosten8.3 km/hSüdosten1007.7 hPa0.0 mm0.0 mm/h
22.01.2019 - 16.00Uhr-0.3 °C-2.9 °C82 %35.0 W/m²4.0 km/hSüdosten10.1 km/hSüdosten1007.7 hPa0.0 mm0.0 mm/h
22.01.2019 - 16.05Uhr-0.3 °C-2.9 °C83 %32.0 W/m²0.2 km/hSüdosten1.8 km/hSüdosten1007.6 hPa0.0 mm0.0 mm/h
22.01.2019 - 16.10Uhr-0.2 °C-2.7 °C83 %28.0 W/m²2.6 km/hSüdosten8.3 km/hSüdosten1007.5 hPa0.0 mm0.0 mm/h
22.01.2019 - 16.15Uhr-0.3 °C-2.8 °C83 %23.0 W/m²2.1 km/hSüdosten8.3 km/hSüdosten1007.5 hPa0.0 mm0.0 mm/h
22.01.2019 - 16.20Uhr-0.3 °C-2.9 °C83 %21.0 W/m²1.6 km/hSüdosten4.0 km/hSüdosten1007.5 hPa0.0 mm0.0 mm/h
22.01.2019 - 16.25Uhr-0.4 °C-2.9 °C83 %18.0 W/m²0.8 km/hSüdosten4.0 km/hSüdosten1007.4 hPa0.0 mm0.0 mm/h
22.01.2019 - 16.30Uhr-0.4 °C-2.9 °C83 %16.0 W/m²1.3 km/hSüdosten4.0 km/hSüdosten1007.3 hPa0.0 mm0.0 mm/h
22.01.2019 - 16.35Uhr-0.4 °C-2.9 °C83 %12.0 W/m²0.0 km/hSüdosten0.0 km/hNorden1007.3 hPa0.0 mm0.0 mm/h
22.01.2019 - 16.40Uhr-0.3 °C-2.8 °C84 %11.0 W/m²0.0 km/hSüdosten0.0 km/hNorden1007.2 hPa0.0 mm0.0 mm/h
22.01.2019 - 16.45Uhr-0.4 °C-2.9 °C83 %9.0 W/m²0.3 km/hSüdosten1.8 km/hSüdosten1007.1 hPa0.0 mm0.0 mm/h
22.01.2019 - 16.50Uhr-0.4 °C-2.9 °C83 %7.0 W/m²1.2 km/hSüdosten4.0 km/hSüdosten1007.1 hPa0.0 mm0.0 mm/h
22.01.2019 - 16.55Uhr-0.4 °C-2.9 °C83 %5.0 W/m²8.1 km/hSüdosten16.2 km/hSüd-SO1007.0 hPa0.0 mm0.0 mm/h
22.01.2019 - 17.00Uhr-0.5 °C-3.0 °C83 %0.0 W/m²4.0 km/hSüdosten10.1 km/hSüdosten1007.0 hPa0.0 mm0.0 mm/h
22.01.2019 - 17.05Uhr-0.5 °C-3.0 °C83 %0.0 W/m²4.5 km/hSüdosten8.3 km/hSüdosten1007.0 hPa0.0 mm0.0 mm/h
22.01.2019 - 17.10Uhr-0.5 °C-3.0 °C83 %0.0 W/m²1.5 km/hSüdosten8.3 km/hSüdosten1006.9 hPa0.0 mm0.0 mm/h
22.01.2019 - 17.15Uhr-0.5 °C-2.9 °C84 %0.0 W/m²2.4 km/hSüdosten8.3 km/hSüdosten1006.8 hPa0.0 mm0.0 mm/h
22.01.2019 - 17.20Uhr-0.6 °C-3.0 °C84 %0.0 W/m²2.5 km/hSüdosten8.3 km/hSüdosten1006.8 hPa0.0 mm0.0 mm/h
22.01.2019 - 17.25Uhr-0.6 °C-3.1 °C83 %0.0 W/m²3.3 km/hSüdosten8.3 km/hSüdosten1006.7 hPa0.0 mm0.0 mm/h
22.01.2019 - 17.30Uhr-0.7 °C-3.2 °C83 %0.0 W/m²3.7 km/hSüdosten8.3 km/hSüdosten1006.7 hPa0.0 mm0.0 mm/h
22.01.2019 - 17.35Uhr-0.6 °C-3.0 °C84 %0.0 W/m²2.4 km/hSüdosten8.3 km/hSüdosten1006.7 hPa0.0 mm0.0 mm/h
22.01.2019 - 17.40Uhr-0.6 °C-3.0 °C84 %0.0 W/m²3.2 km/hSüdosten8.3 km/hSüdosten1006.7 hPa0.0 mm0.0 mm/h
22.01.2019 - 17.45Uhr-0.6 °C-3.0 °C84 %0.0 W/m²0.7 km/hSüdosten1.8 km/hSüdosten1006.5 hPa0.0 mm0.0 mm/h
22.01.2019 - 17.50Uhr-0.6 °C-3.0 °C84 %0.0 W/m²0.3 km/hSüdosten1.8 km/hSüdosten1006.5 hPa0.0 mm0.0 mm/h
22.01.2019 - 17.55Uhr-0.6 °C-2.9 °C85 %0.0 W/m²1.4 km/hSüdosten4.0 km/hSüdosten1006.4 hPa0.0 mm0.0 mm/h
22.01.2019 - 18.00Uhr-0.7 °C-3.0 °C84 %0.0 W/m²3.2 km/hSüdosten8.3 km/hSüdosten1006.4 hPa0.0 mm0.0 mm/h
22.01.2019 - 18.05Uhr-0.7 °C-3.1 °C84 %0.0 W/m²3.6 km/hSüdosten8.3 km/hSüdosten1006.4 hPa0.0 mm0.0 mm/h
22.01.2019 - 18.10Uhr-0.7 °C-3.1 °C84 %0.0 W/m²2.6 km/hSüdosten8.3 km/hSüdosten1006.4 hPa0.0 mm0.0 mm/h
22.01.2019 - 18.15Uhr-0.7 °C-3.1 °C84 %0.0 W/m²1.0 km/hSüdosten4.0 km/hSüdosten1006.3 hPa0.0 mm0.0 mm/h